sensor_id;sensor_type;location;lat;lon;timestamp;pressure;altitude;pressure_sealevel;temperature;humidity
77897;BME280;67092;64.282;21.056;2023-02-01T00:02:09;98584.30;;;21.19;19.99
77897;BME280;67092;64.282;21.056;2023-02-01T00:04:34;98585.13;;;20.84;20.21
77897;BME280;67092;64.282;21.056;2023-02-01T00:07:00;98578.15;;;21.11;19.89
77897;BME280;67092;64.282;21.056;2023-02-01T00:09:25;98577.41;;;20.74;20.35
77897;BME280;67092;64.282;21.056;2023-02-01T00:11:51;98576.51;;;20.73;20.06
77897;BME280;67092;64.282;21.056;2023-02-01T00:14:16;98574.40;;;21.32;19.90
77897;BME280;67092;64.282;21.056;2023-02-01T00:16:42;98574.49;;;20.93;19.80
77897;BME280;67092;64.282;21.056;2023-02-01T00:19:10;98573.93;;;20.91;19.85
77897;BME280;67092;64.282;21.056;2023-02-01T00:21:33;98577.62;;;21.21;19.81
77897;BME280;67092;64.282;21.056;2023-02-01T00:23:59;98580.42;;;21.09;19.75
77897;BME280;67092;64.282;21.056;2023-02-01T00:26:30;98582.03;;;20.76;20.11
77897;BME280;67092;64.282;21.056;2023-02-01T00:28:50;98579.67;;;21.22;19.95
77897;BME280;67092;64.282;21.056;2023-02-01T00:31:15;98579.56;;;20.84;19.87
77897;BME280;67092;64.282;21.056;2023-02-01T00:33:41;98583.17;;;20.87;20.06
77897;BME280;67092;64.282;21.056;2023-02-01T00:36:08;98583.87;;;20.88;19.85
77897;BME280;67092;64.282;21.056;2023-02-01T00:38:33;98584.20;;;21.41;19.63
77897;BME280;67092;64.282;21.056;2023-02-01T00:41:03;98587.27;;;20.46;20.09
77897;BME280;67092;64.282;21.056;2023-02-01T00:43:23;98583.25;;;20.91;20.10
77897;BME280;67092;64.282;21.056;2023-02-01T00:45:49;98577.31;;;21.11;19.83
77897;BME280;67092;64.282;21.056;2023-02-01T00:48:14;98580.45;;;21.03;19.95
77897;BME280;67092;64.282;21.056;2023-02-01T00:50:41;98579.67;;;20.97;20.03
77897;BME280;67092;64.282;21.056;2023-02-01T00:53:05;98579.11;;;20.88;19.94
77897;BME280;67092;64.282;21.056;2023-02-01T00:55:31;98575.87;;;21.47;19.76
77897;BME280;67092;64.282;21.056;2023-02-01T00:57:57;98582.00;;;21.03;19.95
77897;BME280;67092;64.282;21.056;2023-02-01T01:00:22;98578.66;;;21.22;19.82
77897;BME280;67092;64.282;21.056;2023-02-01T01:02:48;98576.57;;;21.32;19.57
77897;BME280;67092;64.282;21.056;2023-02-01T01:05:14;98574.65;;;20.85;19.66
77897;BME280;67092;64.282;21.056;2023-02-01T01:07:39;98577.96;;;21.65;19.25
77897;BME280;67092;64.282;21.056;2023-02-01T01:10:05;98579.35;;;21.07;19.54
77897;BME280;67092;64.282;21.056;2023-02-01T01:12:31;98584.27;;;21.48;19.72
77897;BME280;67092;64.282;21.056;2023-02-01T01:14:56;98592.90;;;20.94;19.66
77897;BME280;67092;64.282;21.056;2023-02-01T01:17:21;98596.64;;;20.87;19.82
77897;BME280;67092;64.282;21.056;2023-02-01T01:19:47;98595.84;;;21.38;19.66
77897;BME280;67092;64.282;21.056;2023-02-01T01:22:13;98595.89;;;20.82;19.77
77897;BME280;67092;64.282;21.056;2023-02-01T01:24:38;98595.37;;;21.16;19.70
77897;BME280;67092;64.282;21.056;2023-02-01T01:27:04;98595.42;;;20.89;19.76
77897;BME280;67092;64.282;21.056;2023-02-01T01:29:30;98598.92;;;21.29;19.41
77897;BME280;67092;64.282;21.056;2023-02-01T01:31:55;98603.98;;;21.28;19.62
77897;BME280;67092;64.282;21.056;2023-02-01T01:34:21;98607.42;;;21.16;19.86
77897;BME280;67092;64.282;21.056;2023-02-01T01:36:46;98607.76;;;21.24;19.59
77897;BME280;67092;64.282;21.056;2023-02-01T01:39:12;98611.84;;;21.03;19.78
77897;BME280;67092;64.282;21.056;2023-02-01T01:41:38;98613.64;;;21.48;19.45
77897;BME280;67092;64.282;21.056;2023-02-01T01:44:05;98615.52;;;20.68;19.75
77897;BME280;67092;64.282;21.056;2023-02-01T01:46:31;98620.21;;;21.15;19.82
77897;BME280;67092;64.282;21.056;2023-02-01T01:49:02;98622.04;;;20.76;19.85
77897;BME280;67092;64.282;21.056;2023-02-01T01:51:24;98624.72;;;21.06;19.68
77897;BME280;67092;64.282;21.056;2023-02-01T01:53:50;98623.88;;;21.15;19.57
77897;BME280;67092;64.282;21.056;2023-02-01T01:56:12;98623.49;;;21.05;19.47
77897;BME280;67092;64.282;21.056;2023-02-01T01:58:37;98622.97;;;20.92;19.66
77897;BME280;67092;64.282;21.056;2023-02-01T02:01:03;98622.46;;;20.97;19.63
77897;BME280;67092;64.282;21.056;2023-02-01T02:03:32;98622.81;;;20.81;19.80
77897;BME280;67092;64.282;21.056;2023-02-01T02:05:55;98629.34;;;21.08;19.41
77897;BME280;67092;64.282;21.056;2023-02-01T02:08:20;98628.14;;;20.58;19.89
77897;BME280;67092;64.282;21.056;2023-02-01T02:10:45;98633.21;;;21.74;19.24
77897;BME280;67092;64.282;21.056;2023-02-01T02:13:11;98634.25;;;20.89;19.79
77897;BME280;67092;64.282;21.056;2023-02-01T02:15:37;98633.11;;;21.06;19.69
77897;BME280;67092;64.282;21.056;2023-02-01T02:18:07;98634.10;;;21.02;19.72
77897;BME280;67092;64.282;21.056;2023-02-01T02:20:41;98637.35;;;21.15;19.65
77897;BME280;67092;64.282;21.056;2023-02-01T02:23:14;98634.95;;;21.11;19.75
77897;BME280;67092;64.282;21.056;2023-02-01T02:25:30;98632.66;;;20.85;19.65
77897;BME280;67092;64.282;21.056;2023-02-01T02:27:50;98635.25;;;21.23;19.66
77897;BME280;67092;64.282;21.056;2023-02-01T02:30:24;98637.81;;;21.34;19.52
77897;BME280;67092;64.282;21.056;2023-02-01T02:32:45;98634.17;;;20.78;19.73
77897;BME280;67092;64.282;21.056;2023-02-01T02:35:03;98636.28;;;21.23;19.55
77897;BME280;67092;64.282;21.056;2023-02-01T02:37:31;98634.22;;;21.09;19.64
77897;BME280;67092;64.282;21.056;2023-02-01T02:39:57;98631.44;;;21.01;19.89
77897;BME280;67092;64.282;21.056;2023-02-01T02:42:25;98632.54;;;21.11;19.75
77897;BME280;67092;64.282;21.056;2023-02-01T02:44:48;98632.92;;;20.36;20.21
77897;BME280;67092;64.282;21.056;2023-02-01T02:47:16;98636.67;;;20.75;20.01
77897;BME280;67092;64.282;21.056;2023-02-01T02:49:39;98638.05;;;20.24;20.06
77897;BME280;67092;64.282;21.056;2023-02-01T02:52:05;98637.66;;;20.92;19.92
77897;BME280;67092;64.282;21.056;2023-02-01T02:54:28;98640.15;;;21.22;19.66
77897;BME280;67092;64.282;21.056;2023-02-01T02:56:53;98638.61;;;20.99;19.59
77897;BME280;67092;64.282;21.056;2023-02-01T02:59:21;98636.68;;;20.93;19.81
77897;BME280;67092;64.282;21.056;2023-02-01T03:01:43;98637.51;;;21.43;19.50
77897;BME280;67092;64.282;21.056;2023-02-01T03:04:08;98638.88;;;20.73;19.59
77897;BME280;67092;64.282;21.056;2023-02-01T03:06:34;98636.52;;;20.90;19.62
77897;BME280;67092;64.282;21.056;2023-02-01T03:09:03;98636.82;;;20.56;19.78
77897;BME280;67092;64.282;21.056;2023-02-01T03:11:25;98636.08;;;20.95;19.79
77897;BME280;67092;64.282;21.056;2023-02-01T03:13:52;98640.58;;;21.15;19.58
77897;BME280;67092;64.282;21.056;2023-02-01T03:16:20;98640.13;;;20.80;19.90
77897;BME280;67092;64.282;21.056;2023-02-01T03:18:46;98639.16;;;20.93;19.80
77897;BME280;67092;64.282;21.056;2023-02-01T03:21:12;98639.11;;;20.97;19.80
77897;BME280;67092;64.282;21.056;2023-02-01T03:23:35;98644.34;;;21.04;19.61
77897;BME280;67092;64.282;21.056;2023-02-01T03:25:59;98646.82;;;21.28;19.60
77897;BME280;67092;64.282;21.056;2023-02-01T03:28:25;98646.75;;;20.97;19.69
77897;BME280;67092;64.282;21.056;2023-02-01T03:30:50;98647.56;;;20.64;19.83
77897;BME280;67092;64.282;21.056;2023-02-01T03:33:18;98650.15;;;20.29;20.17
77897;BME280;67092;64.282;21.056;2023-02-01T03:35:44;98655.74;;;20.91;19.86
77897;BME280;67092;64.282;21.056;2023-02-01T03:38:13;98658.20;;;20.65;19.84
77897;BME280;67092;64.282;21.056;2023-02-01T03:40:35;98662.19;;;21.05;19.82
77897;BME280;67092;64.282;21.056;2023-02-01T03:42:59;98665.00;;;20.85;19.88
77897;BME280;67092;64.282;21.056;2023-02-01T03:45:26;98672.76;;;21.09;19.97
77897;BME280;67092;64.282;21.056;2023-02-01T03:47:51;98676.80;;;20.63;20.21
77897;BME280;67092;64.282;21.056;2023-02-01T03:50:17;98677.97;;;20.50;19.99
77897;BME280;67092;64.282;21.056;2023-02-01T03:52:42;98682.09;;;20.90;20.05
77897;BME280;67092;64.282;21.056;2023-02-01T03:55:07;98686.86;;;21.27;19.60
77897;BME280;67092;64.282;21.056;2023-02-01T03:57:35;98686.80;;;21.34;19.66
77897;BME280;67092;64.282;21.056;2023-02-01T04:00:04;98688.46;;;21.15;19.67
77897;BME280;67092;64.282;21.056;2023-02-01T04:02:22;98690.68;;;21.12;19.87
77897;BME280;67092;64.282;21.056;2023-02-01T04:04:48;98692.70;;;20.87;19.57
77897;BME280;67092;64.282;21.056;2023-02-01T04:07:14;98694.90;;;21.04;19.85
77897;BME280;67092;64.282;21.056;2023-02-01T04:09:39;98695.83;;;20.66;19.99
77897;BME280;67092;64.282;21.056;2023-02-01T04:12:05;98697.37;;;20.99;19.64
77897;BME280;67092;64.282;21.056;2023-02-01T04:14:30;98700.86;;;20.81;19.86
77897;BME280;67092;64.282;21.056;2023-02-01T04:16:56;98701.61;;;21.19;19.65
77897;BME280;67092;64.282;21.056;2023-02-01T04:19:22;98701.55;;;20.96;19.82
77897;BME280;67092;64.282;21.056;2023-02-01T04:21:47;98703.37;;;21.24;19.76
77897;BME280;67092;64.282;21.056;2023-02-01T04:24:13;98705.98;;;21.33;19.68
77897;BME280;67092;64.282;21.056;2023-02-01T04:26:38;98707.19;;;21.14;19.83
77897;BME280;67092;64.282;21.056;2023-02-01T04:29:04;98710.45;;;21.10;19.86
77897;BME280;67092;64.282;21.056;2023-02-01T04:31:30;98713.46;;;21.38;19.65
77897;BME280;67092;64.282;21.056;2023-02-01T04:33:56;98718.99;;;20.94;19.72
77897;BME280;67092;64.282;21.056;2023-02-01T04:36:21;98716.87;;;21.38;19.64
77897;BME280;67092;64.282;21.056;2023-02-01T04:38:46;98717.82;;;21.18;19.68
77897;BME280;67092;64.282;21.056;2023-02-01T04:41:13;98721.80;;;20.19;20.11
77897;BME280;67092;64.282;21.056;2023-02-01T04:43:38;98718.83;;;20.80;19.99
77897;BME280;67092;64.282;21.056;2023-02-01T04:46:04;98716.31;;;21.13;19.66
77897;BME280;67092;64.282;21.056;2023-02-01T04:48:29;98719.52;;;21.41;19.36
77897;BME280;67092;64.282;21.056;2023-02-01T04:50:55;98716.46;;;20.91;19.71
77897;BME280;67092;64.282;21.056;2023-02-01T04:53:20;98717.26;;;20.57;20.00
77897;BME280;67092;64.282;21.056;2023-02-01T04:55:49;98721.61;;;21.13;19.75
77897;BME280;67092;64.282;21.056;2023-02-01T04:58:11;98723.31;;;21.38;19.47
77897;BME280;67092;64.282;21.056;2023-02-01T05:00:37;98726.18;;;21.54;19.39
77897;BME280;67092;64.282;21.056;2023-02-01T05:03:03;98726.01;;;21.19;19.67
77897;BME280;67092;64.282;21.056;2023-02-01T05:05:28;98725.12;;;20.85;19.82
77897;BME280;67092;64.282;21.056;2023-02-01T05:07:54;98728.01;;;20.73;19.61
77897;BME280;67092;64.282;21.056;2023-02-01T05:10:19;98727.92;;;21.32;19.52
77897;BME280;67092;64.282;21.056;2023-02-01T05:12:45;98731.95;;;21.29;19.56
77897;BME280;67092;64.282;21.056;2023-02-01T05:15:11;98731.22;;;20.77;19.73
77897;BME280;67092;64.282;21.056;2023-02-01T05:17:36;98731.27;;;20.56;20.14
77897;BME280;67092;64.282;21.056;2023-02-01T05:20:02;98733.56;;;21.04;19.58
77897;BME280;67092;64.282;21.056;2023-02-01T05:22:27;98734.63;;;21.38;19.47
77897;BME280;67092;64.282;21.056;2023-02-01T05:24:53;98739.79;;;21.19;19.60
77897;BME280;67092;64.282;21.056;2023-02-01T05:27:19;98745.21;;;20.76;19.72
77897;BME280;67092;64.282;21.056;2023-02-01T05:29:44;98751.16;;;20.97;19.77
77897;BME280;67092;64.282;21.056;2023-02-01T05:32:10;98754.69;;;21.13;19.55
77897;BME280;67092;64.282;21.056;2023-02-01T05:34:35;98757.81;;;21.56;19.34
77897;BME280;67092;64.282;21.056;2023-02-01T05:37:01;98760.26;;;20.96;19.63
77897;BME280;67092;64.282;21.056;2023-02-01T05:39:27;98764.13;;;20.71;19.83
77897;BME280;67092;64.282;21.056;2023-02-01T05:41:52;98766.66;;;21.18;19.39
77897;BME280;67092;64.282;21.056;2023-02-01T05:44:18;98768.77;;;21.10;19.57
77897;BME280;67092;64.282;21.056;2023-02-01T05:46:43;98769.31;;;20.63;19.78
77897;BME280;67092;64.282;21.056;2023-02-01T05:49:09;98772.57;;;21.26;19.57
77897;BME280;67092;64.282;21.056;2023-02-01T05:51:35;98776.66;;;20.77;19.87
77897;BME280;67092;64.282;21.056;2023-02-01T05:54:00;98785.96;;;20.61;20.00
77897;BME280;67092;64.282;21.056;2023-02-01T05:56:26;98786.13;;;20.57;19.98
77897;BME280;67092;64.282;21.056;2023-02-01T05:58:51;98788.53;;;20.84;19.73
77897;BME280;67092;64.282;21.056;2023-02-01T06:01:17;98789.94;;;20.98;19.56
77897;BME280;67092;64.282;21.056;2023-02-01T06:03:43;98790.53;;;20.86;19.60
77897;BME280;67092;64.282;21.056;2023-02-01T06:06:08;98792.92;;;20.52;19.97
77897;BME280;67092;64.282;21.056;2023-02-01T06:08:34;98793.27;;;21.28;19.36
77897;BME280;67092;64.282;21.056;2023-02-01T06:11:00;98795.49;;;21.10;19.54
77897;BME280;67092;64.282;21.056;2023-02-01T06:13:25;98790.93;;;20.44;19.77
77897;BME280;67092;64.282;21.056;2023-02-01T06:15:51;98793.56;;;21.09;19.46
77897;BME280;67092;64.282;21.056;2023-02-01T06:18:16;98797.84;;;20.75;19.45
77897;BME280;67092;64.282;21.056;2023-02-01T06:20:42;98803.92;;;21.28;19.26
77897;BME280;67092;64.282;21.056;2023-02-01T06:23:08;98807.92;;;21.44;19.08
77897;BME280;67092;64.282;21.056;2023-02-01T06:25:33;98813.94;;;20.51;19.69
77897;BME280;67092;64.282;21.056;2023-02-01T06:28:00;98824.61;;;20.82;19.75
77897;BME280;67092;64.282;21.056;2023-02-01T06:30:24;98828.67;;;20.79;19.70
77897;BME280;67092;64.282;21.056;2023-02-01T06:32:51;98828.07;;;21.37;19.60
77897;BME280;67092;64.282;21.056;2023-02-01T06:35:16;98829.55;;;21.34;19.20
77897;BME280;67092;64.282;21.056;2023-02-01T06:37:42;98835.50;;;21.60;19.08
77897;BME280;67092;64.282;21.056;2023-02-01T06:40:08;98845.02;;;20.89;19.21
77897;BME280;67092;64.282;21.056;2023-02-01T06:42:32;98848.49;;;20.81;19.45
77897;BME280;67092;64.282;21.056;2023-02-01T06:44:58;98849.59;;;20.51;19.37
77897;BME280;67092;64.282;21.056;2023-02-01T06:47:23;98857.38;;;21.02;19.07
77897;BME280;67092;64.282;21.056;2023-02-01T06:49:49;98857.10;;;20.74;19.39
77897;BME280;67092;64.282;21.056;2023-02-01T06:52:15;98860.22;;;20.61;19.39
77897;BME280;67092;64.282;21.056;2023-02-01T06:54:40;98865.86;;;20.68;19.25
77897;BME280;67092;64.282;21.056;2023-02-01T06:57:06;98867.31;;;20.68;19.28
77897;BME280;67092;64.282;21.056;2023-02-01T06:59:31;98872.51;;;20.51;19.22
77897;BME280;67092;64.282;21.056;2023-02-01T07:01:57;98869.52;;;21.05;18.96
77897;BME280;67092;64.282;21.056;2023-02-01T07:04:23;98873.35;;;20.40;19.30
77897;BME280;67092;64.282;21.056;2023-02-01T07:06:48;98879.69;;;20.55;19.12
77897;BME280;67092;64.282;21.056;2023-02-01T07:09:14;98887.38;;;20.95;19.04
77897;BME280;67092;64.282;21.056;2023-02-01T07:11:39;98885.84;;;21.20;18.74
77897;BME280;67092;64.282;21.056;2023-02-01T07:14:05;98888.11;;;20.56;19.08
77897;BME280;67092;64.282;21.056;2023-02-01T07:16:31;98893.47;;;20.82;18.79
77897;BME280;67092;64.282;21.056;2023-02-01T07:18:56;98897.82;;;20.53;18.98
77897;BME280;67092;64.282;21.056;2023-02-01T07:21:22;98898.64;;;20.60;19.09
77897;BME280;67092;64.282;21.056;2023-02-01T07:23:47;98902.17;;;20.88;18.69
77897;BME280;67092;64.282;21.056;2023-02-01T07:26:14;98902.87;;;21.23;18.58
77897;BME280;67092;64.282;21.056;2023-02-01T07:28:39;98902.96;;;21.20;18.56
77897;BME280;67092;64.282;21.056;2023-02-01T07:31:06;98901.57;;;21.15;18.40
77897;BME280;67092;64.282;21.056;2023-02-01T07:33:30;98904.05;;;21.15;18.55
77897;BME280;67092;64.282;21.056;2023-02-01T07:35:56;98907.83;;;21.04;18.38
77897;BME280;67092;64.282;21.056;2023-02-01T07:38:21;98906.00;;;20.68;18.58
77897;BME280;67092;64.282;21.056;2023-02-01T07:40:47;98908.40;;;21.23;18.40
77897;BME280;67092;64.282;21.056;2023-02-01T07:43:13;98907.62;;;20.77;18.57
77897;BME280;67092;64.282;21.056;2023-02-01T07:45:39;98904.23;;;20.88;18.56
77897;BME280;67092;64.282;21.056;2023-02-01T07:48:04;98908.93;;;20.77;18.63
77897;BME280;67092;64.282;21.056;2023-02-01T07:50:30;98910.47;;;20.75;18.66
77897;BME280;67092;64.282;21.056;2023-02-01T07:52:55;98910.66;;;20.92;18.47
77897;BME280;67092;64.282;21.056;2023-02-01T07:55:20;98912.93;;;20.99;18.39
77897;BME280;67092;64.282;21.056;2023-02-01T07:57:46;98914.60;;;20.80;18.51
77897;BME280;67092;64.282;21.056;2023-02-01T08:00:13;98919.54;;;20.31;18.79
77897;BME280;67092;64.282;21.056;2023-02-01T08:02:37;98925.07;;;20.79;18.53
77897;BME280;67092;64.282;21.056;2023-02-01T08:05:03;98925.05;;;21.10;18.26
77897;BME280;67092;64.282;21.056;2023-02-01T08:07:28;98925.26;;;21.24;18.12
77897;BME280;67092;64.282;21.056;2023-02-01T08:09:54;98932.20;;;20.80;18.44
77897;BME280;67092;64.282;21.056;2023-02-01T08:12:20;98937.40;;;20.71;18.44
77897;BME280;67092;64.282;21.056;2023-02-01T08:14:45;98935.89;;;20.22;18.54
77897;BME280;67092;64.282;21.056;2023-02-01T08:17:11;98934.92;;;20.88;18.29
77897;BME280;67092;64.282;21.056;2023-02-01T08:19:36;98936.25;;;20.45;18.59
77897;BME280;67092;64.282;21.056;2023-02-01T08:22:02;98939.15;;;21.28;18.02
77897;BME280;67092;64.282;21.056;2023-02-01T08:24:27;98940.00;;;21.21;17.99
77897;BME280;67092;64.282;21.056;2023-02-01T08:26:53;98944.68;;;20.89;18.26
77897;BME280;67092;64.282;21.056;2023-02-01T08:29:19;98945.71;;;21.03;18.10
77897;BME280;67092;64.282;21.056;2023-02-01T08:31:44;98946.95;;;20.30;18.40
77897;BME280;67092;64.282;21.056;2023-02-01T08:34:10;98949.01;;;20.64;18.29
77897;BME280;67092;64.282;21.056;2023-02-01T08:36:36;98951.01;;;20.46;18.46
77897;BME280;67092;64.282;21.056;2023-02-01T08:39:01;98950.10;;;21.44;17.74
77897;BME280;67092;64.282;21.056;2023-02-01T08:41:29;98957.20;;;20.55;18.29
77897;BME280;67092;64.282;21.056;2023-02-01T08:43:53;98961.20;;;20.71;17.96
77897;BME280;67092;64.282;21.056;2023-02-01T08:46:18;98963.44;;;20.56;18.17
77897;BME280;67092;64.282;21.056;2023-02-01T08:48:45;98967.57;;;21.04;17.91
77897;BME280;67092;64.282;21.056;2023-02-01T08:51:11;98965.77;;;20.66;18.10
77897;BME280;67092;64.282;21.056;2023-02-01T08:53:35;98959.43;;;20.49;18.28
77897;BME280;67092;64.282;21.056;2023-02-01T08:56:00;98957.61;;;20.96;17.92
77897;BME280;67092;64.282;21.056;2023-02-01T08:58:26;98968.10;;;20.70;18.10
77897;BME280;67092;64.282;21.056;2023-02-01T09:00:52;98987.94;;;20.72;17.88
77897;BME280;67092;64.282;21.056;2023-02-01T09:03:17;98982.68;;;20.39;18.12
77897;BME280;67092;64.282;21.056;2023-02-01T09:05:43;98998.51;;;20.90;17.91
77897;BME280;67092;64.282;21.056;2023-02-01T09:08:09;98999.96;;;20.68;18.07
77897;BME280;67092;64.282;21.056;2023-02-01T09:10:35;99000.58;;;21.23;17.69
77897;BME280;67092;64.282;21.056;2023-02-01T09:13:00;99001.07;;;20.65;17.88
77897;BME280;67092;64.282;21.056;2023-02-01T09:15:25;98995.59;;;21.03;17.75
77897;BME280;67092;64.282;21.056;2023-02-01T09:17:51;98996.17;;;20.60;17.97
77897;BME280;67092;64.282;21.056;2023-02-01T09:20:17;98998.46;;;20.30;18.04
77897;BME280;67092;64.282;21.056;2023-02-01T09:22:42;99003.27;;;21.00;17.59
77897;BME280;67092;64.282;21.056;2023-02-01T09:25:08;99002.54;;;20.70;17.74
77897;BME280;67092;64.282;21.056;2023-02-01T09:27:34;99005.01;;;21.04;17.69
77897;BME280;67092;64.282;21.056;2023-02-01T09:29:59;99009.86;;;20.42;17.76
77897;BME280;67092;64.282;21.056;2023-02-01T09:32:25;99005.97;;;20.54;17.63
77897;BME280;67092;64.282;21.056;2023-02-01T09:34:51;99006.74;;;20.51;17.73
77897;BME280;67092;64.282;21.056;2023-02-01T09:37:16;99014.22;;;20.82;17.47
77897;BME280;67092;64.282;21.056;2023-02-01T09:39:42;99020.24;;;20.80;17.42
77897;BME280;67092;64.282;21.056;2023-02-01T09:42:17;99020.00;;;21.44;17.36
77897;BME280;67092;64.282;21.056;2023-02-01T09:44:49;99025.41;;;21.19;17.48
77897;BME280;67092;64.282;21.056;2023-02-01T09:46:59;99027.32;;;21.15;17.49
77897;BME280;67092;64.282;21.056;2023-02-01T09:49:29;99031.71;;;21.34;17.33
77897;BME280;67092;64.282;21.056;2023-02-01T09:51:51;99036.62;;;20.42;17.81
77897;BME280;67092;64.282;21.056;2023-02-01T09:54:18;99037.86;;;21.19;17.29
77897;BME280;67092;64.282;21.056;2023-02-01T09:56:46;99040.88;;;20.97;17.48
77897;BME280;67092;64.282;21.056;2023-02-01T09:59:15;99042.76;;;20.93;17.53
77897;BME280;67092;64.282;21.056;2023-02-01T10:01:32;99044.52;;;21.12;17.53
77897;BME280;67092;64.282;21.056;2023-02-01T10:04:01;99043.84;;;20.92;17.34
77897;BME280;67092;64.282;21.056;2023-02-01T10:06:37;99044.81;;;21.06;17.49
77897;BME280;67092;64.282;21.056;2023-02-01T10:09:03;99047.03;;;21.05;17.50
77897;BME280;67092;64.282;21.056;2023-02-01T10:11:24;99046.87;;;20.72;17.72
77897;BME280;67092;64.282;21.056;2023-02-01T10:13:51;99050.62;;;21.54;17.26
77897;BME280;67092;64.282;21.056;2023-02-01T10:16:13;99046.59;;;20.81;17.37
77897;BME280;67092;64.282;21.056;2023-02-01T10:18:44;99048.17;;;21.36;17.37
77897;BME280;67092;64.282;21.056;2023-02-01T10:21:01;99048.26;;;21.10;17.42
77897;BME280;67092;64.282;21.056;2023-02-01T10:23:35;99052.22;;;21.46;17.30
77897;BME280;67092;64.282;21.056;2023-02-01T10:25:53;99053.04;;;20.98;17.51
77897;BME280;67092;64.282;21.056;2023-02-01T10:28:15;99052.28;;;20.55;17.66
77897;BME280;67092;64.282;21.056;2023-02-01T10:30:41;99055.76;;;21.01;17.38
77897;BME280;67092;64.282;21.056;2023-02-01T10:33:14;99057.53;;;20.88;17.50
77897;BME280;67092;64.282;21.056;2023-02-01T10:35:31;99059.74;;;20.79;17.49
77897;BME280;67092;64.282;21.056;2023-02-01T10:37:55;99065.06;;;20.89;17.64
77897;BME280;67092;64.282;21.056;2023-02-01T10:40:21;99067.83;;;20.84;17.66
77897;BME280;67092;64.282;21.056;2023-02-01T10:42:45;99073.73;;;20.68;17.74
77897;BME280;67092;64.282;21.056;2023-02-01T10:45:14;99076.37;;;20.45;17.79
77897;BME280;67092;64.282;21.056;2023-02-01T10:47:36;99072.82;;;20.73;17.59
77897;BME280;67092;64.282;21.056;2023-02-01T10:50:11;99074.37;;;21.01;17.53
77897;BME280;67092;64.282;21.056;2023-02-01T10:52:36;99080.97;;;20.58;17.69
77897;BME280;67092;64.282;21.056;2023-02-01T10:54:53;99081.12;;;20.88;17.62
77897;BME280;67092;64.282;21.056;2023-02-01T10:57:22;99083.30;;;21.04;17.52
77897;BME280;67092;64.282;21.056;2023-02-01T10:59:44;99084.06;;;21.12;17.25
77897;BME280;67092;64.282;21.056;2023-02-01T11:02:19;99091.21;;;20.77;17.62
77897;BME280;67092;64.282;21.056;2023-02-01T11:04:35;99090.44;;;20.86;17.62
77897;BME280;67092;64.282;21.056;2023-02-01T11:07:07;99089.79;;;20.07;17.93
77897;BME280;67092;64.282;21.056;2023-02-01T11:09:26;99086.61;;;21.18;17.25
77897;BME280;67092;64.282;21.056;2023-02-01T11:11:56;99092.88;;;21.09;17.45
77897;BME280;67092;64.282;21.056;2023-02-01T11:14:19;99092.37;;;21.34;17.31
77897;BME280;67092;64.282;21.056;2023-02-01T11:16:48;99097.16;;;20.56;17.78
77897;BME280;67092;64.282;21.056;2023-02-01T11:19:07;99096.79;;;21.36;17.27
77897;BME280;67092;64.282;21.056;2023-02-01T11:21:33;99097.94;;;20.89;17.43
77897;BME280;67092;64.282;21.056;2023-02-01T11:24:02;99096.93;;;21.30;17.42
77897;BME280;67092;64.282;21.056;2023-02-01T11:26:25;99100.35;;;20.93;17.56
77897;BME280;67092;64.282;21.056;2023-02-01T11:28:54;99102.81;;;20.83;17.59
77897;BME280;67092;64.282;21.056;2023-02-01T11:31:14;99104.25;;;21.11;17.59
77897;BME280;67092;64.282;21.056;2023-02-01T11:33:46;99106.73;;;21.09;17.43
77897;BME280;67092;64.282;21.056;2023-02-01T11:36:08;99109.77;;;20.37;17.77
77897;BME280;67092;64.282;21.056;2023-02-01T11:38:32;99109.69;;;20.17;17.74
77897;BME280;67092;64.282;21.056;2023-02-01T11:43:24;99115.97;;;20.78;17.60
77897;BME280;67092;64.282;21.056;2023-02-01T11:45:55;99114.77;;;20.80;17.56
77897;BME280;67092;64.282;21.056;2023-02-01T11:48:16;99114.05;;;21.10;17.43
77897;BME280;67092;64.282;21.056;2023-02-01T11:50:43;99114.69;;;20.69;17.56
77897;BME280;67092;64.282;21.056;2023-02-01T11:53:13;99117.99;;;21.06;17.41
77897;BME280;67092;64.282;21.056;2023-02-01T11:55:38;99119.48;;;20.92;17.56
77897;BME280;67092;64.282;21.056;2023-02-01T11:58:04;99119.20;;;20.69;17.65
77897;BME280;67092;64.282;21.056;2023-02-01T12:00:29;99123.48;;;20.68;17.72
77897;BME280;67092;64.282;21.056;2023-02-01T12:03:00;99127.38;;;20.77;17.62
77897;BME280;67092;64.282;21.056;2023-02-01T12:05:21;99121.26;;;21.22;17.32
77897;BME280;67092;64.282;21.056;2023-02-01T12:07:51;99125.65;;;20.93;17.55
77897;BME280;67092;64.282;21.056;2023-02-01T12:10:12;99132.70;;;21.07;17.61
77897;BME280;67092;64.282;21.056;2023-02-01T12:12:33;99125.09;;;21.37;17.24
77897;BME280;67092;64.282;21.056;2023-02-01T12:15:08;99129.92;;;20.53;17.62
77897;BME280;67092;64.282;21.056;2023-02-01T12:17:31;99132.77;;;20.66;17.75
77897;BME280;67092;64.282;21.056;2023-02-01T12:19:58;99128.90;;;20.67;17.56
77897;BME280;67092;64.282;21.056;2023-02-01T12:22:21;99135.17;;;20.39;17.90
77897;BME280;67092;64.282;21.056;2023-02-01T12:24:56;99134.86;;;20.44;17.87
77897;BME280;67092;64.282;21.056;2023-02-01T12:27:10;99135.00;;;20.76;17.53
77897;BME280;67092;64.282;21.056;2023-02-01T12:29:39;99135.79;;;20.24;17.73
77897;BME280;67092;64.282;21.056;2023-02-01T12:32:02;99135.00;;;20.92;17.41
77897;BME280;67092;64.282;21.056;2023-02-01T12:34:34;99132.04;;;20.96;17.56
77897;BME280;67092;64.282;21.056;2023-02-01T12:36:49;99138.13;;;20.31;17.80
77897;BME280;67092;64.282;21.056;2023-02-01T12:39:16;99150.99;;;20.97;17.54
77897;BME280;67092;64.282;21.056;2023-02-01T12:41:45;99151.43;;;19.95;17.86
77897;BME280;67092;64.282;21.056;2023-02-01T12:44:01;99151.32;;;20.89;17.58